Queimados, Brazil
Current Conditions -  °F | °C
As of 1:00 AM on Friday 28 Nov 2014 (Local Time) from SBAF Reporting Station
Overcast Overcast  
Wind Chill: 73°   Ceiling: 3500
Heat Index: 73°   Visibility: 4mi
Dew Point: 70°   Wind: 7mph
Humidity: 88%   Direction: 290°WNW
Pressure: 29.91"   Gusts: NA
Location:  22.72°S, 43.56°W
Report Text: SBAF 280300Z 29006KT 6000 FEW004 SCT015 OVC035 23/21 Q1013
Loading
Personal Weather Stations






























Interactive Weather Map New forecast layout! Learn more

10-Day Weather Forecast

Advertisements
Track Severe Weather on mobile